Time;durP1;ratioP1;P1;durP2;ratioP2;P2;SDS_P1;SDS_P2;PMS_P1;PMS_P2;Temp;Humidity;BMP_temperature;BMP_pressure;BME280_temperature;BME280_humidity;BME280_pressure;Samples;Min_cycle;Max_cycle;Signal;HPM_P1;HPM_P2
2022/09/16 00:02:14;;;;;;;7.55;5.72;;;13.00;99.90;;;;;;6182290;23;20072;-77
2022/09/16 00:04:41;;;;;;;8.25;5.47;;;13.00;99.90;;;;;;6181716;23;20053;-77
2022/09/16 00:07:09;;;;;;;10.07;4.65;;;13.00;99.90;;;;;;6154528;23;20021;-77
2022/09/16 00:09:37;;;;;;;11.25;5.82;;;13.10;99.90;;;;;;6182164;23;20105;-76
2022/09/16 00:12:05;;;;;;;7.57;4.40;;;13.00;99.90;;;;;;6182400;23;20476;-76
2022/09/16 00:14:33;;;;;;;5.88;4.13;;;13.00;99.90;;;;;;6181288;23;20033;-76
2022/09/16 00:17:02;;;;;;;5.88;4.20;;;13.10;99.90;;;;;;6154332;23;20025;-77
2022/09/16 00:19:29;;;;;;;7.00;4.03;;;13.10;99.90;;;;;;6181027;23;20447;-77
2022/09/16 00:21:57;;;;;;;7.78;4.32;;;13.10;99.90;;;;;;6182482;23;20025;-77
2022/09/16 00:24:24;;;;;;;5.55;3.88;;;13.10;99.90;;;;;;6181030;23;20025;-77
2022/09/16 00:26:51;;;;;;;6.28;4.40;;;13.10;99.90;;;;;;6180588;23;20052;-78
2022/09/16 00:29:19;;;;;;;11.23;4.18;;;13.10;99.90;;;;;;6181749;23;20025;-78
2022/09/16 00:31:46;;;;;;;7.78;3.95;;;13.10;99.90;;;;;;6182108;23;20343;-77
2022/09/16 00:34:15;;;;;;;6.63;3.30;;;13.10;99.90;;;;;;6181425;23;20398;-77
2022/09/16 00:36:42;;;;;;;5.38;2.85;;;13.10;99.90;;;;;;6180737;23;20032;-77
2022/09/16 00:39:10;;;;;;;6.82;2.80;;;13.10;99.90;;;;;;6182696;23;20336;-78
2022/09/16 00:41:37;;;;;;;4.63;3.00;;;13.10;99.90;;;;;;6181489;23;20032;-78
2022/09/16 00:44:28;;;;;;;4.10;3.05;;;13.10;99.90;;;;;;6181844;23;20285;-78
2022/09/16 00:46:55;;;;;;;3.80;2.80;;;13.00;99.90;;;;;;6181931;23;20021;-78
2022/09/16 00:49:29;;;;;;;2.70;2.50;;;13.00;99.90;;;;;;6132077;23;20025;-78
2022/09/16 00:52:01;;;;;;;5.65;2.83;;;13.00;99.90;;;;;;6180676;23;20105;-78
2022/09/16 00:54:29;;;;;;;3.03;2.35;;;13.00;99.90;;;;;;6154056;23;20025;-77
2022/09/16 00:56:59;;;;;;;3.38;2.20;;;13.00;99.90;;;;;;6156028;23;20021;-77
2022/09/16 00:59:29;;;;;;;5.13;3.88;;;13.00;99.90;;;;;;6182898;23;20056;-77
2022/09/16 01:02:01;;;;;;;3.83;2.70;;;13.00;99.90;;;;;;6180020;23;20016;-78
2022/09/16 01:04:37;;;;;;;4.10;3.03;;;13.00;99.90;;;;;;6182410;23;20346;-78
2022/09/16 01:07:04;;;;;;;6.68;3.03;;;13.00;99.90;;;;;;6132635;23;20024;-78
2022/09/16 01:09:32;;;;;;;4.82;2.40;;;13.00;99.90;;;;;;6157706;23;20021;-78
2022/09/16 01:11:59;;;;;;;2.95;2.65;;;13.00;99.90;;;;;;6155463;23;20021;-78
2022/09/16 01:17:24;;;;;;;3.83;2.58;;;13.00;99.90;;;;;;6183745;23;20033;-79
2022/09/16 01:20:30;;;;;;;3.80;2.90;;;13.00;99.90;;;;;;6183306;23;20116;-83
2022/09/16 01:23:24;;;;;;;4.53;2.45;;;13.00;99.90;;;;;;6180416;23;20454;-79
2022/09/16 01:26:13;;;;;;;3.72;2.42;;;13.00;99.90;;;;;;6184558;23;20029;-79
2022/09/16 01:29:26;;;;;;;8.57;2.63;;;12.90;99.90;;;;;;6183134;23;20442;-78
2022/09/16 01:32:04;;;;;;;5.43;2.40;;;12.90;99.90;;;;;;6130580;23;20029;-79
2022/09/16 01:34:43;;;;;;;3.78;2.70;;;12.90;99.90;;;;;;6184010;23;20276;-79
2022/09/16 01:37:20;;;;;;;3.90;2.35;;;12.90;99.90;;;;;;6132845;23;20088;-78
2022/09/16 01:40:00;;;;;;;7.30;5.07;;;12.90;99.90;;;;;;6155386;23;20108;-78
2022/09/16 01:42:38;;;;;;;3.80;2.80;;;12.90;99.90;;;;;;6155315;23;20116;-79
2022/09/16 01:45:12;;;;;;;5.38;3.15;;;12.90;99.90;;;;;;6184506;23;20041;-79
2022/09/16 01:47:51;;;;;;;3.47;3.05;;;12.90;99.90;;;;;;6182357;23;20024;-79
2022/09/16 01:50:23;;;;;;;8.63;3.10;;;12.90;99.90;;;;;;6181568;23;20021;-78
2022/09/16 01:53:03;;;;;;;4.13;2.23;;;12.80;99.90;;;;;;6156417;23;20354;-79
2022/09/16 01:55:37;;;;;;;3.95;2.60;;;12.80;99.90;;;;;;6157821;23;20060;-78
2022/09/16 01:58:11;;;;;;;5.20;3.00;;;12.80;99.90;;;;;;6183567;23;20402;-78
2022/09/16 02:00:42;;;;;;;4.25;2.80;;;12.80;99.90;;;;;;6131402;23;20029;-78
2022/09/16 02:03:17;;;;;;;6.75;3.10;;;12.70;99.90;;;;;;6183685;23;20330;-83
2022/09/16 02:05:51;;;;;;;4.47;3.30;;;12.60;99.90;;;;;;6154863;23;20125;-82
2022/09/16 02:08:30;;;;;;;5.03;2.65;;;12.60;99.90;;;;;;6155361;23;20021;-82
2022/09/16 02:11:00;;;;;;;8.68;3.05;;;12.50;99.90;;;;;;6183583;23;20111;-83
2022/09/16 02:13:34;;;;;;;5.20;2.70;;;12.50;99.90;;;;;;6183588;23;20025;-83
2022/09/16 02:16:07;;;;;;;13.05;8.63;;;12.40;99.90;;;;;;6154009;23;20045;-82
2022/09/16 02:18:40;;;;;;;6.05;2.95;;;12.40;99.90;;;;;;6182246;23;20478;-81
2022/09/16 02:21:13;;;;;;;5.00;3.08;;;12.40;99.90;;;;;;6156558;23;20112;-81
2022/09/16 02:23:46;;;;;;;7.90;3.22;;;12.30;99.90;;;;;;6130813;23;20086;-81
2022/09/16 02:26:19;;;;;;;4.35;2.63;;;12.30;99.90;;;;;;6180630;23;20104;-80
2022/09/16 02:28:50;;;;;;;3.33;2.33;;;12.30;99.90;;;;;;6183165;23;20345;-82
2022/09/16 02:31:23;;;;;;;2.90;2.28;;;12.30;99.90;;;;;;6157295;23;20021;-81
2022/09/16 02:33:56;;;;;;;;;;;12.30;99.90;;;;;;6130282;23;20021;-81
2022/09/16 02:36:26;;;;;;;5.85;2.65;;;12.30;99.90;;;;;;6180785;23;19951;-81
2022/09/16 02:38:59;;;;;;;4.47;2.50;;;12.40;99.90;;;;;;6182390;23;20032;-81
2022/09/16 02:41:27;;;;;;;5.35;2.47;;;12.40;99.90;;;;;;6182545;23;20323;-81
2022/09/16 02:43:54;;;;;;;3.17;2.20;;;12.40;99.90;;;;;;6180706;23;20083;-80
2022/09/16 02:46:32;;;;;;;5.18;2.70;;;12.40;99.90;;;;;;6181556;23;20024;-82
2022/09/16 02:49:12;;;;;;;3.50;2.30;;;12.30;99.90;;;;;;6183376;23;20021;-81
2022/09/16 02:51:52;;;;;;;3.55;2.40;;;12.30;99.90;;;;;;6180353;23;20394;-80
2022/09/16 02:54:25;;;;;;;2.72;2.08;;;12.30;99.90;;;;;;6180877;23;20035;-81
2022/09/16 02:56:55;;;;;;;6.68;2.53;;;12.20;99.90;;;;;;6154312;23;20041;-81
2022/09/16 02:59:24;;;;;;;5.78;2.88;;;12.20;99.90;;;;;;6183200;23;20029;-81
2022/09/16 03:01:51;;;;;;;5.22;2.35;;;12.20;99.90;;;;;;6180529;23;20025;-81
2022/09/16 03:04:21;;;;;;;4.53;2.13;;;12.30;99.90;;;;;;6154384;23;20028;-81
2022/09/16 03:06:48;;;;;;;7.03;2.63;;;12.30;99.90;;;;;;6156458;23;20615;-81
2022/09/16 03:09:22;;;;;;;4.45;2.42;;;12.30;99.90;;;;;;6156427;23;20021;-81
2022/09/16 03:12:18;;;;;;;3.78;2.05;;;12.40;99.90;;;;;;6153203;23;20077;-82
2022/09/16 03:15:34;;;;;;;2.95;2.20;;;12.30;99.90;;;;;;6155009;23;20128;-82
2022/09/16 03:18:49;;;;;;;5.28;2.20;;;12.40;99.90;;;;;;6183361;23;20048;-82
2022/09/16 03:21:29;;;;;;;5.35;2.28;;;12.40;99.90;;;;;;6042769;23;20026;-82
2022/09/16 03:24:06;;;;;;;8.80;2.35;;;12.40;99.90;;;;;;6165383;23;20023;-80
2022/09/16 03:26:42;;;;;;;5.32;2.45;;;12.50;99.90;;;;;;6182904;23;20025;-79
2022/09/16 03:29:18;;;;;;;6.40;2.10;;;12.50;99.90;;;;;;6154878;23;20025;-80
2022/09/16 03:31:54;;;;;;;3.63;2.53;;;12.50;99.90;;;;;;6181453;23;20521;-80
2022/09/16 03:34:26;;;;;;;5.10;3.55;;;12.50;99.90;;;;;;6156936;23;20064;-80
2022/09/16 03:37:02;;;;;;;6.75;2.92;;;12.50;99.90;;;;;;6156491;23;20021;-81
2022/09/16 03:39:31;;;;;;;7.75;2.80;;;12.50;99.90;;;;;;6180713;23;20383;-80
2022/09/16 03:42:01;;;;;;;3.08;2.10;;;12.50;99.90;;;;;;6154987;23;20025;-81
2022/09/16 03:44:33;;;;;;;5.88;2.35;;;12.50;99.90;;;;;;6182882;23;20025;-81
2022/09/16 03:47:00;;;;;;;10.02;2.03;;;12.40;99.90;;;;;;6155107;23;20025;-81
2022/09/16 03:49:29;;;;;;;6.90;2.20;;;12.40;99.90;;;;;;6180916;23;20057;-81
2022/09/16 03:51:57;;;;;;;6.35;2.15;;;12.40;99.90;;;;;;6156362;23;20477;-82
2022/09/16 03:54:25;;;;;;;7.60;2.45;;;12.40;99.90;;;;;;6155183;23;20043;-82
2022/09/16 03:56:53;;;;;;;3.65;2.40;;;12.40;99.90;;;;;;6181256;23;20017;-82
2022/09/16 03:59:23;;;;;;;7.85;2.42;;;12.30;99.90;;;;;;6181876;23;20021;-81
2022/09/16 04:01:51;;;;;;;6.45;2.50;;;12.20;99.90;;;;;;6154473;23;20031;-81
2022/09/16 04:04:18;;;;;;;2.40;1.75;;;12.20;99.90;;;;;;6182760;23;20025;-81
2022/09/16 04:06:46;;;;;;;7.55;2.72;;;12.10;99.90;;;;;;6181003;23;20397;-81
2022/09/16 04:09:15;;;;;;;13.27;2.83;;;12.10;99.90;;;;;;6181016;23;20390;-81
2022/09/16 04:11:43;;;;;;;5.50;2.20;;;12.00;99.90;;;;;;6181513;23;20048;-84
2022/09/16 04:14:11;;;;;;;8.60;2.30;;;12.00;99.90;;;;;;6156807;23;20108;-84
2022/09/16 04:16:38;;;;;;;7.78;2.45;;;12.00;99.90;;;;;;6179256;23;20028;-80
2022/09/16 04:19:07;;;;;;;8.70;2.35;;;12.10;99.90;;;;;;6180572;23;20029;-80
2022/09/16 04:21:34;;;;;;;9.57;2.35;;;12.10;99.90;;;;;;6131496;23;20128;-82
2022/09/16 04:24:02;;;;;;;9.75;2.85;;;12.10;99.90;;;;;;6179818;23;20073;-81
2022/09/16 04:26:31;;;;;;;5.93;2.22;;;12.10;99.90;;;;;;6181285;23;20087;-77
2022/09/16 04:28:59;;;;;;;7.60;2.92;;;12.10;99.90;;;;;;6155221;23;20040;-82
2022/09/16 04:31:26;;;;;;;7.78;2.60;;;12.20;99.90;;;;;;6183629;23;20410;-77
2022/09/16 04:33:53;;;;;;;5.32;2.05;;;12.30;99.90;;;;;;6181961;23;20063;-78
2022/09/16 04:36:22;;;;;;;4.97;2.10;;;12.30;99.90;;;;;;6181659;23;20020;-78
2022/09/16 04:38:49;;;;;;;9.93;3.03;;;12.40;99.90;;;;;;6184850;23;20025;-77
2022/09/16 04:41:20;;;;;;;6.50;2.42;;;12.40;99.90;;;;;;6158229;23;20021;-78
2022/09/16 04:43:52;;;;;;;7.47;2.80;;;12.50;99.90;;;;;;6157318;23;20025;-80
2022/09/16 04:46:20;;;;;;;4.18;2.45;;;12.60;99.90;;;;;;6183025;23;20100;-80
2022/09/16 04:48:48;;;;;;;6.07;2.10;;;12.60;99.90;;;;;;6158500;23;20021;-77
2022/09/16 04:51:16;;;;;;;5.93;3.20;;;12.70;99.90;;;;;;6183193;23;20029;-79
2022/09/16 04:53:44;;;;;;;4.43;2.38;;;12.70;99.90;;;;;;6184759;23;20025;-78
2022/09/16 04:56:16;;;;;;;10.00;2.35;;;12.70;99.90;;;;;;6183075;23;20103;-76
2022/09/16 04:58:48;;;;;;;5.53;2.95;;;12.60;99.90;;;;;;6184454;23;20028;-76
2022/09/16 05:01:18;;;;;;;5.88;2.70;;;12.50;99.90;;;;;;6181605;23;20055;-80
2022/09/16 05:03:48;;;;;;;5.95;2.97;;;12.50;99.90;;;;;;6181294;23;20103;-81
2022/09/16 05:06:18;;;;;;;4.95;2.58;;;12.40;99.90;;;;;;6182069;23;20031;-77
2022/09/16 05:08:46;;;;;;;6.95;2.30;;;12.50;99.90;;;;;;6183600;23;20025;-75
2022/09/16 05:11:16;;;;;;;4.00;2.15;;;12.50;99.90;;;;;;6181795;23;20028;-79
2022/09/16 05:13:44;;;;;;;3.65;2.20;;;12.60;99.90;;;;;;6182626;23;20021;-76
2022/09/16 05:16:15;;;;;;;7.22;2.63;;;12.70;99.90;;;;;;6155733;23;20370;-76
2022/09/16 05:18:45;;;;;;;4.25;2.20;;;12.70;99.90;;;;;;6183676;23;20021;-75
2022/09/16 05:21:16;;;;;;;4.13;1.80;;;12.70;99.90;;;;;;6181846;23;20518;-75
2022/09/16 05:23:44;;;;;;;6.80;1.95;;;12.70;99.90;;;;;;6180545;23;20382;-80
2022/09/16 05:26:14;;;;;;;3.60;2.00;;;12.80;99.90;;;;;;6178944;23;20024;-80
2022/09/16 05:28:43;;;;;;;2.22;1.50;;;12.80;99.90;;;;;;6183780;23;20192;-81
2022/09/16 05:31:14;;;;;;;2.80;1.80;;;12.80;99.90;;;;;;6154160;23;20105;-80
2022/09/16 05:33:43;;;;;;;6.05;2.15;;;12.90;99.90;;;;;;6179171;23;20029;-80
2022/09/16 05:36:14;;;;;;;2.65;1.75;;;12.90;99.90;;;;;;6152548;23;20537;-79
2022/09/16 05:38:43;;;;;;;4.57;1.70;;;12.90;99.90;;;;;;6177046;23;20463;-79
2022/09/16 05:41:11;;;;;;;5.07;1.80;;;13.00;99.90;;;;;;6176236;23;20374;-81
2022/09/16 05:43:39;;;;;;;3.70;1.52;;;13.00;99.90;;;;;;6181205;23;20028;-80
2022/09/16 05:46:07;;;;;;;3.67;1.50;;;13.00;99.90;;;;;;6183080;23;20035;-80
2022/09/16 05:48:52;;;;;;;7.75;1.63;;;13.00;99.90;;;;;;6181177;23;20109;-81
2022/09/16 05:51:27;;;;;;;7.70;2.33;;;13.10;99.90;;;;;;6128908;23;20398;-80
2022/09/16 05:53:55;;;;;;;5.35;1.98;;;13.10;99.90;;;;;;6181369;23;20049;-76
2022/09/16 05:56:25;;;;;;;5.75;1.92;;;13.20;99.90;;;;;;6175468;23;20029;-76
2022/09/16 05:58:53;;;;;;;3.92;2.08;;;13.20;99.90;;;;;;6178001;23;20335;-77
2022/09/16 06:01:25;;;;;;;5.90;2.35;;;13.10;99.90;;;;;;6153403;23;20021;-76
2022/09/16 06:03:55;;;;;;;3.63;2.67;;;13.20;99.90;;;;;;6155430;23;20025;-75
2022/09/16 06:06:25;;;;;;;6.45;2.63;;;13.30;99.90;;;;;;6174883;23;20379;-74
2022/09/16 06:08:55;;;;;;;3.10;2.90;;;13.50;99.90;;;;;;6153146;23;20025;-80
2022/09/16 06:11:23;;;;;;;3.55;2.25;;;13.70;99.90;;;;;;6180733;23;20071;-83
2022/09/16 06:13:55;;;;;;;5.10;2.33;;;13.80;99.90;;;;;;6183673;23;20052;-81
2022/09/16 06:16:24;;;;;;;2.23;1.83;;;14.20;99.90;;;;;;6180442;23;20025;-85
2022/09/16 06:18:56;;;;;;;3.50;2.20;;;14.50;99.90;;;;;;6179812;23;20025;-84
2022/09/16 06:21:24;;;;;;;2.33;1.88;;;14.60;99.90;;;;;;6153355;23;20025;-80
2022/09/16 06:23:52;;;;;;;2.17;1.73;;;14.50;99.90;;;;;;6179012;23;20454;-80
2022/09/16 06:26:22;;;;;;;4.65;2.53;;;14.40;99.90;;;;;;6150552;23;20508;-79
2022/09/16 06:28:51;;;;;;;2.42;1.92;;;14.50;99.90;;;;;;6174975;23;20024;-78
2022/09/16 06:31:21;;;;;;;5.88;1.80;;;14.50;99.90;;;;;;6176813;23;20021;-79
2022/09/16 06:33:50;;;;;;;4.70;1.83;;;14.30;99.90;;;;;;6179739;23;20705;-79
2022/09/16 06:36:22;;;;;;;2.85;1.60;;;14.20;99.90;;;;;;6180336;23;20028;-79
2022/09/16 06:38:51;;;;;;;8.13;2.60;;;14.10;99.90;;;;;;6180744;23;20025;-79
2022/09/16 06:41:20;;;;;;;5.50;1.98;;;13.80;99.90;;;;;;6180724;23;20021;-79
2022/09/16 06:43:51;;;;;;;3.10;1.88;;;13.70;99.90;;;;;;6181960;23;20028;-80
2022/09/16 06:46:23;;;;;;;2.72;2.25;;;13.60;99.90;;;;;;6153371;23;20024;-81
2022/09/16 06:48:52;;;;;;;6.63;2.63;;;13.60;99.90;;;;;;6156536;23;20024;-79
2022/09/16 06:51:24;;;;;;;3.80;1.98;;;13.50;99.90;;;;;;6153710;23;20386;-79
2022/09/16 06:53:54;;;;;;;4.05;1.75;;;13.50;99.90;;;;;;6181379;23;20025;-78
2022/09/16 06:56:22;;;;;;;4.47;1.30;;;13.70;99.90;;;;;;6178804;23;20028;-78
2022/09/16 06:58:51;;;;;;;2.10;1.42;;;13.80;99.90;;;;;;6154434;23;20112;-78
2022/09/16 07:01:22;;;;;;;5.80;1.73;;;13.90;99.90;;;;;;6155212;23;20116;-78
2022/09/16 07:03:51;;;;;;;4.47;1.45;;;13.90;99.90;;;;;;6180527;23;20021;-77
2022/09/16 07:06:23;;;;;;;3.72;1.67;;;13.80;99.90;;;;;;6155042;23;20027;-84
2022/09/16 07:08:50;;;;;;;4.97;2.10;;;13.80;99.90;;;;;;6182711;23;20048;-82
2022/09/16 07:11:20;;;;;;;4.78;1.38;;;13.80;99.90;;;;;;6181196;23;20320;-82
2022/09/16 07:13:49;;;;;;;1.40;1.30;;;13.80;99.90;;;;;;6180916;23;20027;-81
2022/09/16 07:16:19;;;;;;;4.60;1.48;;;14.00;99.90;;;;;;6180111;23;20036;-81
2022/09/16 07:18:47;;;;;;;6.05;1.88;;;14.10;99.90;;;;;;6181947;23;20087;-81
2022/09/16 07:21:16;;;;;;;4.30;1.60;;;14.10;99.90;;;;;;6181214;23;20025;-76
2022/09/16 07:23:46;;;;;;;5.88;1.92;;;14.20;99.90;;;;;;6179913;23;20021;-78
2022/09/16 07:26:16;;;;;;;4.55;1.42;;;14.20;99.90;;;;;;6180247;23;20413;-74
2022/09/16 07:28:46;;;;;;;3.00;1.23;;;14.10;99.90;;;;;;6181119;23;20021;-74
2022/09/16 07:31:16;;;;;;;4.80;1.95;;;14.00;99.90;;;;;;6179286;23;20025;-75
2022/09/16 07:33:48;;;;;;;6.15;1.98;;;14.00;99.90;;;;;;6126772;23;20021;-72
2022/09/16 07:36:19;;;;;;;3.57;1.70;;;14.00;99.90;;;;;;6179851;23;20112;-78
2022/09/16 07:38:48;;;;;;;3.60;1.45;;;14.00;99.90;;;;;;6180414;23;20265;-76
2022/09/16 07:41:18;;;;;;;2.90;1.30;;;14.00;99.90;;;;;;6178141;23;20025;-78
2022/09/16 07:43:45;;;;;;;6.07;2.05;;;13.90;99.90;;;;;;6179248;23;20021;-77
2022/09/16 07:46:16;;;;;;;4.70;1.98;;;13.80;99.90;;;;;;6152547;23;20025;-79
2022/09/16 07:48:45;;;;;;;5.97;2.08;;;13.90;99.90;;;;;;6181551;23;20024;-79
2022/09/16 07:51:15;;;;;;;2.17;1.50;;;14.00;99.90;;;;;;6179563;23;20466;-78
2022/09/16 07:53:44;;;;;;;4.80;1.50;;;14.10;99.90;;;;;;6180015;23;20029;-79
2022/09/16 07:56:16;;;;;;;3.58;1.38;;;14.10;99.90;;;;;;6179338;23;20028;-79
2022/09/16 07:58:45;;;;;;;5.07;1.45;;;14.20;99.90;;;;;;6152607;23;20031;-78
2022/09/16 08:01:14;;;;;;;8.65;2.45;;;14.20;99.90;;;;;;6178027;23;20025;-80
2022/09/16 08:03:43;;;;;;;5.90;1.42;;;14.20;99.90;;;;;;6179011;23;20029;-79
2022/09/16 08:06:13;;;;;;;3.10;1.45;;;14.20;99.90;;;;;;6153021;23;20301;-79
2022/09/16 08:08:41;;;;;;;4.45;0.93;;;14.30;99.90;;;;;;6178280;23;20028;-80
2022/09/16 08:11:11;;;;;;;4.68;1.55;;;14.20;99.90;;;;;;6177875;23;20024;-78
2022/09/16 08:13:41;;;;;;;7.30;1.38;;;14.20;99.90;;;;;;6156124;23;20021;-81
2022/09/16 08:16:12;;;;;;;4.72;1.35;;;14.20;99.90;;;;;;6182200;23;20349;-79
2022/09/16 08:18:40;;;;;;;4.72;1.65;;;14.10;99.90;;;;;;6180788;23;20036;-80
2022/09/16 08:21:09;;;;;;;13.73;2.35;;;14.10;99.90;;;;;;6181648;23;20079;-79
2022/09/16 08:23:38;;;;;;;4.60;1.83;;;14.20;99.90;;;;;;6182574;23;20025;-79
2022/09/16 08:26:09;;;;;;;4.30;1.63;;;14.30;99.90;;;;;;6180530;23;20043;-75
2022/09/16 08:28:41;;;;;;;4.95;1.60;;;14.30;99.90;;;;;;6180108;23;20057;-74
2022/09/16 08:31:12;;;;;;;2.03;1.20;;;14.30;99.90;;;;;;6178926;23;20025;-74
2022/09/16 08:33:39;;;;;;;5.40;1.67;;;14.30;99.90;;;;;;6183309;23;20310;-74
2022/09/16 08:36:14;;;;;;;5.88;2.53;;;14.30;99.90;;;;;;6180062;23;20029;-75
2022/09/16 08:38:49;;;;;;;5.85;2.33;;;14.30;99.90;;;;;;6178425;23;20500;-74
2022/09/16 08:41:32;;;;;;;7.78;2.40;;;14.30;99.90;;;;;;6154086;23;20031;-75
2022/09/16 08:44:15;;;;;;;8.90;2.15;;;14.30;99.90;;;;;;6179723;23;20473;-75
2022/09/16 08:46:51;;;;;;;5.63;1.65;;;14.30;99.90;;;;;;6127806;23;20056;-75
2022/09/16 08:49:30;;;;;;;5.88;2.50;;;14.30;99.90;;;;;;6155302;23;20080;-75
2022/09/16 08:52:00;;;;;;;8.15;2.00;;;14.30;99.90;;;;;;6182993;23;20092;-75
2022/09/16 08:54:35;;;;;;;6.57;1.85;;;14.30;99.90;;;;;;6154312;23;20048;-75
2022/09/16 08:57:05;;;;;;;2.90;1.80;;;14.30;99.90;;;;;;6180154;23;20024;-73
2022/09/16 08:59:41;;;;;;;3.95;1.92;;;14.10;99.90;;;;;;6181788;23;20374;-74
2022/09/16 09:02:31;;;;;;;4.30;1.67;;;14.20;99.90;;;;;;6155011;23;20017;-75
2022/09/16 09:04:59;;;;;;;6.57;1.55;;;14.30;99.90;;;;;;6180491;23;20036;-74
2022/09/16 09:07:40;;;;;;;3.33;1.30;;;14.30;99.90;;;;;;6179731;23;20024;-76
2022/09/16 09:10:18;;;;;;;5.25;1.30;;;14.30;99.90;;;;;;6182631;23;20183;-75
2022/09/16 09:12:49;;;;;;;4.60;1.65;;;14.30;99.90;;;;;;6181323;23;20040;-76
2022/09/16 09:15:40;;;;;;;13.18;2.42;;;14.40;99.90;;;;;;6180726;23;20614;-77
2022/09/16 09:18:26;;;;;;;6.32;1.48;;;14.70;99.90;;;;;;6155166;23;20074;-74
2022/09/16 09:21:05;;;;;;;3.92;1.50;;;15.00;99.90;;;;;;6132034;23;20025;-79
2022/09/16 09:24:10;;;;;;;7.90;1.55;;;15.00;99.90;;;;;;6179587;23;20029;-80
2022/09/16 09:26:47;;;;;;;7.28;1.95;;;14.90;99.90;;;;;;6181653;23;20049;-81
2022/09/16 09:29:46;;;;;;;5.93;1.60;;;14.70;99.90;;;;;;6183029;23;20075;-80
2022/09/16 09:32:27;;;;;;;6.80;1.45;;;14.70;99.90;;;;;;6154027;23;20458;-80
2022/09/16 09:35:15;;;;;;;3.90;1.20;;;15.00;99.90;;;;;;6181317;23;20025;-81
2022/09/16 09:38:37;;;;;;;5.78;1.50;;;15.50;99.90;;;;;;6182886;23;20025;-81
2022/09/16 09:41:11;;;;;;;7.70;1.95;;;15.70;99.90;;;;;;6180451;23;20079;-79
2022/09/16 09:43:45;;;;;;;2.75;1.23;;;15.80;99.90;;;;;;6180658;23;20025;-81
2022/09/16 09:46:18;;;;;;;3.80;1.33;;;15.70;99.90;;;;;;6181908;23;20611;-81
2022/09/16 09:48:57;;;;;;;6.93;1.27;;;15.60;99.90;;;;;;6156057;23;20035;-81
2022/09/16 09:51:38;;;;;;;2.90;1.20;;;15.40;99.90;;;;;;6179891;23;20021;-79
2022/09/16 09:54:30;;;;;;;3.67;1.40;;;15.40;99.90;;;;;;6155556;23;20099;-80
2022/09/16 09:57:02;;;;;;;2.90;1.50;;;15.40;99.90;;;;;;6183087;23;20032;-79
2022/09/16 09:59:34;;;;;;;;;;;15.60;99.90;;;;;;6181747;23;20025;-81
2022/09/16 10:02:02;;;;;;;2.92;1.20;;;15.80;99.90;;;;;;6181089;23;19924;-80
2022/09/16 10:04:37;;;;;;;4.72;1.40;;;16.20;99.90;;;;;;6155482;23;20051;-80
2022/09/16 10:07:09;;;;;;;4.03;1.38;;;16.30;99.90;;;;;;6155468;23;20020;-80
2022/09/16 10:09:37;;;;;;;5.07;1.55;;;16.50;99.90;;;;;;6152718;23;20035;-80
2022/09/16 10:12:04;;;;;;;2.67;1.10;;;17.00;99.90;;;;;;6180173;23;20082;-82
2022/09/16 10:14:35;;;;;;;1.58;1.25;;;17.20;99.90;;;;;;6182324;23;20482;-81
2022/09/16 10:17:05;;;;;;;1.77;0.90;;;17.10;99.90;;;;;;6179523;23;20028;-78
2022/09/16 10:19:48;;;;;;;2.08;0.90;;;17.30;99.90;;;;;;6181684;23;20025;-81
2022/09/16 10:22:22;;;;;;;;;;;17.90;99.90;;;;;;6178432;23;20099;-81
2022/09/16 10:24:55;;;;;;;;;;;18.50;99.90;;;;;;6182910;23;19931;-81
2022/09/16 10:27:34;;;;;;;1.23;0.90;;;19.20;99.90;;;;;;6180787;23;20066;-77
2022/09/16 10:30:08;;;;;;;3.72;1.00;;;20.00;99.90;;;;;;6155911;23;20021;-77
2022/09/16 10:32:49;;;;;;;;;;;20.30;99.90;;;;;;6184328;23;20328;-76
2022/09/16 10:35:34;;;;;;;3.55;0.80;;;20.20;99.90;;;;;;6181203;23;19920;-77
2022/09/16 10:38:04;;;;;;;3.53;1.23;;;19.90;99.90;;;;;;6154062;23;20025;-81
2022/09/16 10:40:33;;;;;;;3.40;0.93;;;20.10;99.90;;;;;;6154721;23;20028;-76
2022/09/16 10:43:04;;;;;;;4.20;0.95;;;20.10;99.90;;;;;;6182911;23;20051;-76
2022/09/16 10:45:35;;;;;;;2.50;0.82;;;19.70;99.90;;;;;;6178694;23;20456;-77
2022/09/16 10:48:12;;;;;;;3.17;1.08;;;19.20;99.90;;;;;;6179816;23;20021;-76
2022/09/16 10:50:52;;;;;;;4.70;0.90;;;18.60;99.90;;;;;;6155390;23;20020;-80
2022/09/16 10:53:28;;;;;;;6.03;1.27;;;18.10;99.90;;;;;;6183058;23;20029;-75
2022/09/16 10:56:01;;;;;;;1.27;0.80;;;17.80;99.90;;;;;;6178276;23;20059;-75
2022/09/16 10:58:29;;;;;;;2.55;0.80;;;17.40;99.90;;;;;;6179693;23;20058;-74
2022/09/16 11:01:13;;;;;;;0.85;0.77;;;17.00;99.90;;;;;;6179755;23;20088;-75
2022/09/16 11:04:22;;;;;;;2.38;0.70;;;16.80;99.90;;;;;;6178830;23;20025;-75
2022/09/16 11:07:09;;;;;;;4.18;1.40;;;16.70;99.90;;;;;;6179723;23;20021;-75
2022/09/16 11:09:57;;;;;;;2.92;0.80;;;16.60;99.90;;;;;;6179614;23;20052;-75
2022/09/16 11:12:51;;;;;;;3.92;1.20;;;16.60;99.90;;;;;;6154125;23;20479;-75
2022/09/16 11:15:35;;;;;;;1.50;0.93;;;16.50;99.90;;;;;;6177862;23;20032;-78
2022/09/16 11:18:21;;;;;;;4.32;1.20;;;16.60;99.90;;;;;;6181039;23;20032;-76
2022/09/16 11:21:13;;;;;;;2.05;0.90;;;16.70;99.90;;;;;;6130228;23;20049;-76
2022/09/16 11:24:27;;;;;;;2.92;1.00;;;16.70;99.90;;;;;;6152154;23;20029;-75
2022/09/16 11:27:05;;;;;;;1.38;0.98;;;16.60;99.90;;;;;;6146775;23;20028;-73
2022/09/16 11:29:51;;;;;;;3.42;1.17;;;16.50;99.90;;;;;;6130377;23;20446;-76
2022/09/16 11:32:32;;;;;;;5.07;1.58;;;16.50;99.90;;;;;;6152743;23;20040;-75
2022/09/16 11:35:19;;;;;;;7.53;0.98;;;16.40;99.90;;;;;;6152173;23;20025;-76
2022/09/16 11:37:55;;;;;;;2.53;1.40;;;16.20;99.90;;;;;;6153648;23;20021;-75
2022/09/16 11:40:45;;;;;;;7.63;1.17;;;16.10;99.90;;;;;;6180641;23;20021;-76
2022/09/16 11:43:40;;;;;;;4.93;1.48;;;16.00;99.90;;;;;;6179513;23;20017;-77
2022/09/16 11:46:17;;;;;;;4.75;1.48;;;16.00;99.90;;;;;;6180682;23;20041;-77
2022/09/16 11:49:01;;;;;;;5.57;1.63;;;15.80;99.90;;;;;;6181030;23;20021;-76
2022/09/16 11:51:50;;;;;;;4.97;1.45;;;15.80;99.90;;;;;;6176452;23;20020;-76
2022/09/16 11:54:49;;;;;;;3.35;1.67;;;15.80;99.90;;;;;;6178569;23;20035;-76
2022/09/16 11:57:23;;;;;;;6.45;1.55;;;15.70;99.90;;;;;;6178975;23;20394;-76
2022/09/16 11:59:55;;;;;;;4.97;1.60;;;15.80;99.90;;;;;;6177320;23;20079;-78
2022/09/16 12:02:28;;;;;;;5.87;1.30;;;15.90;99.90;;;;;;6176519;23;20071;-76
2022/09/16 12:05:03;;;;;;;6.40;2.15;;;16.60;99.90;;;;;;6181381;23;20024;-76
2022/09/16 12:07:36;;;;;;;2.75;1.55;;;17.10;99.90;;;;;;6129939;23;20029;-76
2022/09/16 12:10:13;;;;;;;1.55;1.23;;;17.10;99.90;;;;;;6176997;23;20020;-76
2022/09/16 12:12:48;;;;;;;7.82;1.27;;;16.80;99.90;;;;;;6176784;23;20448;-77
2022/09/16 12:15:21;;;;;;;4.07;1.10;;;16.60;99.90;;;;;;6178728;23;20024;-83
2022/09/16 12:17:55;;;;;;;2.97;1.55;;;16.30;99.90;;;;;;6179674;23;20387;-76
2022/09/16 12:20:30;;;;;;;4.05;0.95;;;16.10;99.90;;;;;;6178320;23;20107;-77
2022/09/16 12:23:06;;;;;;;5.97;1.30;;;15.90;99.90;;;;;;6176671;23;20514;-76
2022/09/16 12:25:41;;;;;;;1.88;0.95;;;15.80;99.90;;;;;;6126332;23;20033;-75
2022/09/16 12:28:17;;;;;;;3.60;1.05;;;15.60;99.90;;;;;;6151299;23;20029;-75
2022/09/16 12:30:48;;;;;;;2.58;1.42;;;15.40;99.90;;;;;;6149832;23;20025;-76
2022/09/16 12:33:25;;;;;;;3.35;1.20;;;15.40;99.90;;;;;;6179288;23;20017;-77
2022/09/16 12:35:58;;;;;;;2.60;1.48;;;15.40;99.90;;;;;;6180053;23;20029;-76
2022/09/16 12:38:25;;;;;;;;;;;15.50;99.90;;;;;;6178407;23;20029;-76
2022/09/16 12:41:12;;;;;;;2.00;0.93;;;15.70;99.90;;;;;;6182531;23;19943;-80
2022/09/16 12:44:13;;;;;;;2.97;0.93;;;16.00;99.90;;;;;;6182627;23;20028;-80
2022/09/16 12:47:14;;;;;;;3.45;1.08;;;16.20;99.90;;;;;;6181648;23;20414;-79
2022/09/16 12:50:43;;;;;;;5.47;0.98;;;16.30;99.90;;;;;;6150962;23;20052;-82
2022/09/16 12:54:13;;;;;;;1.95;1.35;;;16.30;99.90;;;;;;6049537;23;20023;-80
2022/09/16 12:56:59;;;;;;;3.72;0.90;;;16.20;99.90;;;;;;6032510;23;20080;-79
2022/09/16 13:00:04;;;;;;;1.70;0.90;;;16.10;99.90;;;;;;6154901;23;20053;-78
2022/09/16 13:02:37;;;;;;;1.95;0.82;;;15.90;99.90;;;;;;6183269;23;20024;-80
2022/09/16 13:05:17;;;;;;;1.45;1.10;;;16.10;99.90;;;;;;6181341;23;20043;-80
2022/09/16 13:07:51;;;;;;;5.80;1.13;;;16.20;99.90;;;;;;6181558;23;20095;-80
2022/09/16 13:10:29;;;;;;;4.20;1.17;;;16.20;99.90;;;;;;6183103;23;20025;-80
2022/09/16 13:13:04;;;;;;;2.67;1.10;;;16.10;99.90;;;;;;6182243;23;20521;-81
2022/09/16 13:15:36;;;;;;;4.80;2.05;;;16.00;99.90;;;;;;6181754;23;20031;-81
2022/09/16 13:18:25;;;;;;;4.57;1.25;;;15.90;99.90;;;;;;6155622;23;20116;-79
2022/09/16 13:20:59;;;;;;;4.05;0.95;;;15.70;99.90;;;;;;6183642;23;20067;-82
2022/09/16 13:23:32;;;;;;;2.88;1.10;;;15.60;99.90;;;;;;6181611;23;20107;-80
2022/09/16 13:26:05;;;;;;;3.08;1.20;;;15.50;99.90;;;;;;6181420;23;20075;-79
2022/09/16 13:28:38;;;;;;;2.85;1.20;;;15.50;99.90;;;;;;6180523;23;20052;-79
2022/09/16 13:31:28;;;;;;;1.88;0.60;;;15.60;99.90;;;;;;6183158;23;20388;-77